Time;durP1;ratioP1;P1;durP2;ratioP2;P2;SDS_P1;SDS_P2;PMS_P1;PMS_P2;Temp;Humidity;BMP_temperature;BMP_pressure;BME280_temperature;BME280_humidity;BME280_pressure;Samples;Min_cycle;Max_cycle;Signal;HPM_P1;HPM_P2
2023/10/17 00:00:54;;;;;;;30.52;17.50;;;;;;;3.49;100.00;100139.09;5031585;28;20022;-82
2023/10/17 00:03:19;;;;;;;20.50;15.75;;;;;;;3.63;100.00;100172.47;5031981;28;20449;-82
2023/10/17 00:05:45;;;;;;;25.27;15.70;;;;;;;3.56;100.00;100164.81;5014248;28;20040;-82
2023/10/17 00:08:12;;;;;;;22.52;16.25;;;;;;;3.66;100.00;100176.72;5014014;28;20405;-82
2023/10/17 00:10:44;;;;;;;26.58;16.38;;;;;;;3.49;100.00;100138.25;5031831;28;20416;-82
2023/10/17 00:16:11;;;;;;;24.75;16.52;;;;;;;3.32;100.00;100120.38;4970459;28;20066;-82
2023/10/17 00:18:38;;;;;;;23.70;16.45;;;;;;;3.50;100.00;100152.84;4970555;28;20043;-82
2023/10/17 00:21:22;;;;;;;23.60;16.08;;;;;;;3.58;100.00;100168.22;4970422;28;20106;-82
2023/10/17 00:23:48;;;;;;;23.83;15.80;;;;;;;3.26;100.00;100133.34;4970565;28;20038;-82
2023/10/17 00:26:14;;;;;;;19.60;15.07;;;;;;;3.39;100.00;100160.66;4972727;28;20046;-82
2023/10/17 00:28:40;;;;;;;22.10;16.88;;;;;;;3.23;100.00;100123.91;4989997;28;20062;-82
2023/10/17 00:31:06;;;;;;;25.00;17.38;;;;;;;3.41;100.00;100158.06;4990888;28;20022;-82
2023/10/17 00:33:37;;;;;;;23.75;16.98;;;;;;;3.13;100.00;100111.16;4993509;28;20038;-82
2023/10/17 00:36:03;;;;;;;21.83;16.20;;;;;;;3.21;100.00;100127.38;4993510;28;20038;-82
2023/10/17 00:38:35;;;;;;;22.63;16.15;;;;;;;3.21;100.00;100124.81;4993515;28;20039;-82
2023/10/17 00:41:00;;;;;;;;;;;;;;;3.43;100.00;100172.66;4993809;28;20078;-82
2023/10/17 00:43:30;;;;;;;23.30;15.98;;;;;;;3.39;100.00;100160.66;4993625;28;19917;-82
2023/10/17 00:45:55;;;;;;;21.70;15.52;;;;;;;3.20;100.00;100123.06;4993217;28;20084;-82
2023/10/17 00:48:23;;;;;;;23.17;16.65;;;;;;;3.33;100.00;100150.44;4976990;28;20026;-82
2023/10/17 00:50:51;;;;;;;26.55;19.00;;;;;;;3.21;100.00;100132.53;4998955;28;20150;-82
2023/10/17 00:53:17;;;;;;;26.35;18.88;;;;;;;3.17;100.00;100125.69;5035459;28;20029;-82
2023/10/17 00:55:56;;;;;;;29.50;20.95;;;;;;;3.28;100.00;100153.91;5035231;28;20029;-82
2023/10/17 00:58:23;;;;;;;30.75;20.63;;;;;;;3.32;100.00;100153.00;5017237;28;20032;-82
2023/10/17 01:01:09;;;;;;;30.20;20.20;;;;;;;3.14;100.00;100115.41;5034955;28;20029;-82
2023/10/17 01:03:34;;;;;;;33.97;20.95;;;;;;;3.28;100.00;100141.88;5034447;28;20041;-82
2023/10/17 01:11:43;;;;;;;30.17;18.05;;;;;;;3.20;100.00;100118.81;4954246;29;20054;-82
2023/10/17 01:14:09;;;;;;;34.50;19.67;;;;;;;3.25;100.00;100139.34;4953963;29;20031;-82
2023/10/17 01:16:34;;;;;;;33.40;19.98;;;;;;;3.33;100.00;100158.16;4954142;29;20093;-82
2023/10/17 01:19:04;;;;;;;37.88;20.40;;;;;;;3.30;100.00;100162.47;4953646;29;20071;-81
2023/10/17 01:21:30;;;;;;;41.83;19.77;;;;;;;2.93;100.00;100089.00;4938052;29;20058;-82
2023/10/17 01:23:56;;;;;;;35.63;19.42;;;;;;;3.31;100.00;100154.72;4954209;29;20051;-82
2023/10/17 01:26:23;;;;;;;36.40;20.33;;;;;;;3.12;100.00;100112.00;4952142;29;20048;-82
2023/10/17 01:28:52;;;;;;;34.10;19.77;;;;;;;2.93;100.00;100090.72;4934961;29;20036;-82
2023/10/17 01:31:25;;;;;;;29.92;19.17;;;;;;;3.28;100.00;100141.03;4934745;29;20103;-81
2023/10/17 01:34:06;;;;;;;32.80;20.35;;;;;;;3.26;100.00;100141.06;4934801;29;20483;-82
2023/10/17 01:36:31;;;;;;;30.80;19.42;;;;;;;3.30;100.00;100150.47;4918807;29;20037;-82
2023/10/17 01:38:56;;;;;;;30.80;20.30;;;;;;;3.08;100.00;100118.91;4934335;29;20149;-82
2023/10/17 01:41:22;;;;;;;28.52;20.27;;;;;;;3.20;100.00;100144.53;4934534;29;20047;-82
2023/10/17 01:43:48;;;;;;;27.23;18.52;;;;;;;3.25;100.00;100159.94;4949735;28;20457;-82
2023/10/17 01:46:24;;;;;;;29.92;19.52;;;;;;;3.00;100.00;100115.53;5014219;28;20081;-82
2023/10/17 01:48:55;;;;;;;27.75;18.05;;;;;;;3.01;100.00;100119.81;5014326;28;20022;-82
2023/10/17 01:51:23;;;;;;;25.38;18.38;;;;;;;3.20;100.00;100146.25;5014250;28;20034;-82
2023/10/17 01:53:50;;;;;;;22.10;15.90;;;;;;;2.97;100.00;100105.28;5014388;28;20469;-82
2023/10/17 01:56:16;;;;;;;26.15;17.20;;;;;;;3.20;100.00;100146.25;5014023;28;20382;-82
2023/10/17 01:58:48;;;;;;;21.08;15.77;;;;;;;3.21;100.00;100146.25;5014173;28;20022;-82
2023/10/17 02:01:31;;;;;;;23.80;15.85;;;;;;;3.16;100.00;100134.25;5014068;28;20092;-82
2023/10/17 02:04:04;;;;;;;28.55;19.27;;;;;;;3.11;100.00;100128.31;5014011;28;20025;-82
2023/10/17 02:06:34;;;;;;;29.50;19.65;;;;;;;3.02;100.00;100130.97;5014163;28;20470;-82
2023/10/17 02:09:00;;;;;;;25.63;16.83;;;;;;;3.14;100.00;100151.44;5013784;28;20029;-82
2023/10/17 02:11:26;;;;;;;23.85;15.77;;;;;;;2.82;100.00;100095.09;5013919;28;20026;-82
2023/10/17 02:13:56;;;;;;;29.10;19.50;;;;;;;2.86;100.00;100114.78;5013935;28;20108;-82
2023/10/17 02:16:24;;;;;;;30.83;20.63;;;;;;;3.11;100.00;100160.03;5013563;28;20030;-82
2023/10/17 02:18:49;;;;;;;30.08;21.08;;;;;;;2.83;100.00;100123.41;5013897;28;20196;-82
2023/10/17 02:21:15;;;;;;;72.80;50.08;;;;;;;2.46;100.00;100053.38;4996009;28;20038;-82
2023/10/17 02:23:43;;;;;;;51.90;35.13;;;;;;;2.96;100.00;100137.03;5014047;28;20030;-82
2023/10/17 02:26:10;;;;;;;44.80;32.28;;;;;;;3.04;100.00;100149.84;4995681;28;20087;-82
2023/10/17 02:28:46;;;;;;;52.80;36.90;;;;;;;3.00;100.00;100151.56;5013491;28;20045;-82
2023/10/17 02:31:15;;;;;;;54.90;34.85;;;;;;;2.91;100.00;100138.78;5013451;28;20030;-82
2023/10/17 02:33:43;;;;;;;50.67;33.00;;;;;;;2.91;100.00;100143.94;4995953;28;20022;-82
2023/10/17 02:36:16;;;;;;;45.92;32.63;;;;;;;2.77;100.00;100117.44;5013290;28;20052;-81
2023/10/17 02:38:43;;;;;;;42.53;29.85;;;;;;;3.00;100.00;100156.72;4995646;28;20477;-82
2023/10/17 02:41:12;;;;;;;40.80;27.98;;;;;;;2.89;100.00;100145.66;5013024;28;20033;-82
2023/10/17 02:43:40;;;;;;;37.47;26.58;;;;;;;2.77;100.00;100126.00;5013220;28;20462;-82
2023/10/17 02:46:06;;;;;;;37.67;25.98;;;;;;;2.79;100.00;100128.59;4995526;28;20041;-82
2023/10/17 02:48:38;;;;;;;41.25;27.23;;;;;;;2.82;100.00;100129.38;5013534;28;20363;-82
2023/10/17 02:53:55;;;;;;;47.88;33.13;;;;;;;2.89;100.00;100143.91;5012577;28;20084;-82
2023/10/17 02:56:22;;;;;;;58.20;39.28;;;;;;;2.74;100.00;100113.19;5013144;28;20057;-82
2023/10/17 02:59:04;;;;;;;54.20;35.75;;;;;;;2.90;100.00;100148.19;5013036;28;20058;-82
2023/10/17 03:01:30;;;;;;;;;;;;;;;2.96;100.00;100173.03;5013412;28;20073;-82
2023/10/17 03:03:56;;;;;;;56.70;34.90;;;;;;;2.66;100.00;100127.81;5012960;28;19909;-82
2023/10/17 03:06:21;;;;;;;46.85;30.83;;;;;;;2.54;100.00;100123.59;4994903;28;20034;-82
2023/10/17 03:09:00;;;;;;;42.00;28.55;;;;;;;2.72;100.00;100156.06;5012899;28;20038;-81
2023/10/17 03:11:35;;;;;;;44.67;27.85;;;;;;;2.67;100.00;100153.50;5012942;28;20482;-82
2023/10/17 03:14:12;;;;;;;40.75;27.25;;;;;;;2.72;100.00;100159.47;5012623;28;20030;-82
2023/10/17 03:16:41;;;;;;;46.33;28.92;;;;;;;2.57;100.00;100133.88;4995134;28;20045;-82
2023/10/17 03:19:07;;;;;;;42.88;25.73;;;;;;;2.43;100.00;100125.38;5012570;28;20535;-82
2023/10/17 03:21:35;;;;;;;37.92;24.92;;;;;;;2.52;100.00;100137.31;5012829;28;20646;-81
2023/10/17 03:24:04;;;;;;;37.47;24.52;;;;;;;2.50;100.00;100133.03;5012544;28;20025;-82
2023/10/17 03:26:39;;;;;;;34.83;23.38;;;;;;;2.49;100.00;100133.06;5015100;28;20121;-82
2023/10/17 03:29:12;;;;;;;33.10;23.08;;;;;;;2.43;100.00;100131.38;5014282;28;20032;-82
2023/10/17 03:31:38;;;;;;;36.00;22.40;;;;;;;2.68;100.00;100173.22;5014542;28;20026;-81
2023/10/17 03:34:05;;;;;;;33.55;22.30;;;;;;;2.65;100.00;100167.22;5032061;28;20112;-81
2023/10/17 03:39:18;;;;;;;29.70;18.98;;;;;;;2.65;100.00;100177.53;5032084;28;20030;-81
2023/10/17 03:41:43;;;;;;;31.20;21.25;;;;;;;2.36;100.00;100142.56;5032093;28;20108;-81
2023/10/17 03:44:09;;;;;;;30.45;22.20;;;;;;;2.58;100.00;100187.00;5014034;28;20105;-81
2023/10/17 03:46:35;;;;;;;27.38;19.02;;;;;;;2.58;100.00;100192.16;5032042;28;20029;-81
2023/10/17 03:49:03;;;;;;;29.55;19.23;;;;;;;2.32;100.00;100155.41;5032026;28;20030;-81
2023/10/17 03:51:30;;;;;;;30.50;19.40;;;;;;;2.47;100.00;100173.34;5032050;28;20049;-81
2023/10/17 03:54:06;;;;;;;27.42;17.50;;;;;;;2.39;100.00;100154.53;5031990;28;20053;-81
2023/10/17 03:56:36;;;;;;;22.80;15.80;;;;;;;2.24;100.00;100129.78;5031964;28;20025;-81
2023/10/17 04:01:39;;;;;;;24.98;17.05;;;;;;;2.57;100.00;100180.16;5031930;28;20072;-81
2023/10/17 04:04:05;;;;;;;22.05;15.68;;;;;;;2.49;100.00;100171.63;5013987;28;20018;-81
2023/10/17 04:09:37;;;;;;;27.58;17.85;;;;;;;2.40;100.00;100175.09;5035939;28;20030;-81
2023/10/17 04:11:53;;;;;;;23.60;16.25;;;;;;;2.25;100.00;100144.31;5032930;28;20037;-81
2023/10/17 04:14:20;;;;;;;23.05;15.52;;;;;;;2.28;100.00;100134.03;5035577;28;20448;-81
2023/10/17 04:16:46;;;;;;;20.63;15.35;;;;;;;2.48;100.00;100175.03;5035841;28;20033;-81
2023/10/17 04:19:18;;;;;;;20.38;15.07;;;;;;;2.46;100.00;100166.50;5035359;28;20587;-81
2023/10/17 04:24:34;;;;;;;21.65;14.38;;;;;;;2.48;100.00;100165.59;5035550;28;20159;-81
2023/10/17 04:27:07;;;;;;;22.02;14.68;;;;;;;2.38;100.00;100145.13;5017800;28;20115;-81
2023/10/17 04:29:34;;;;;;;21.95;15.80;;;;;;;2.60;100.00;100177.56;5035348;28;20555;-81
2023/10/17 04:32:01;;;;;;;27.23;16.83;;;;;;;2.59;100.00;100167.28;5035688;28;20083;-81
2023/10/17 04:34:28;;;;;;;21.15;15.80;;;;;;;2.63;100.00;100174.13;5035393;28;20048;-82
2023/10/17 04:36:56;;;;;;;21.38;16.77;;;;;;;2.66;100.00;100179.25;4993389;28;20133;-82
2023/10/17 04:39:48;;;;;;;22.45;16.95;;;;;;;2.61;100.00;100175.81;4993274;28;20041;-81
2023/10/17 04:42:18;;;;;;;20.27;16.20;;;;;;;2.56;100.00;100170.72;4993398;28;20026;-81
2023/10/17 04:44:55;;;;;;;23.58;16.17;;;;;;;2.61;100.00;100173.25;4993597;28;20038;-82
2023/10/17 04:49:47;;;;;;;37.75;22.88;;;;;;;2.75;100.00;100181.75;4993278;28;20042;-82
2023/10/17 04:52:30;;;;;;;37.70;24.83;;;;;;;2.56;100.00;100139.00;4993272;28;20038;-81
2023/10/17 04:55:04;;;;;;;38.20;20.30;;;;;;;2.74;100.00;100164.63;4993907;28;20306;-82
2023/10/17 05:00:25;;;;;;;33.40;20.77;;;;;;;2.73;100.00;100163.75;4934811;29;20044;-83
2023/10/17 05:03:13;;;;;;;34.63;20.45;;;;;;;2.69;100.00;100167.19;4915994;29;20135;-82
2023/10/17 05:05:39;;;;;;;34.10;20.45;;;;;;;2.71;100.00;100168.06;4916247;29;20076;-83
2023/10/17 05:08:17;;;;;;;44.95;27.40;;;;;;;2.44;100.00;100119.38;4954048;28;20122;-82
2023/10/17 06:18:52;;;;;;;76.97;44.35;;;;;;;3.58;100.00;100220.59;5033586;28;20028;-83
2023/10/17 06:21:18;;;;;;;54.65;35.28;;;;;;;3.40;100.00;100195.84;5015407;28;20481;-83
2023/10/17 06:32:07;;;;;;;45.50;34.15;;;;;;;3.41;100.00;100237.88;5033307;28;20424;-82
2023/10/17 06:34:33;;;;;;;53.95;38.90;;;;;;;3.34;100.00;100211.34;5010612;28;20073;-83
2023/10/17 06:36:59;;;;;;;49.20;38.05;;;;;;;3.41;100.00;100227.59;4994385;28;20398;-83
2023/10/17 06:39:36;;;;;;;44.92;33.78;;;;;;;3.55;100.00;100246.38;5010542;28;20077;-82
2023/10/17 06:42:15;;;;;;;36.75;25.52;;;;;;;3.44;100.00;100206.97;5011054;28;20433;-82
2023/10/17 06:47:31;;;;;;;33.65;22.13;;;;;;;3.82;100.00;100231.53;5010759;28;20587;-83
2023/10/17 06:52:39;;;;;;;35.30;25.07;;;;;;;4.04;100.00;100248.47;5010393;28;20509;-83
2023/10/17 06:55:07;;;;;;;31.80;23.30;;;;;;;3.90;100.00;100216.84;5010611;28;20300;-83
2023/10/17 06:57:36;;;;;;;30.00;20.58;;;;;;;3.94;100.00;100224.53;5010308;28;20481;-82
2023/10/17 07:00:24;;;;;;;20.77;15.07;;;;;;;4.17;100.00;100254.34;5010351;28;20116;-83
2023/10/17 07:02:49;;;;;;;21.60;15.15;;;;;;;3.99;100.00;100207.28;5010500;28;20112;-83
2023/10/17 07:05:21;;;;;;;22.77;14.70;;;;;;;4.33;100.00;100261.03;5001693;28;20137;-83
2023/10/17 07:07:52;;;;;;;22.33;15.27;;;;;;;4.39;100.00;100262.72;5032510;28;20021;-83
2023/10/17 07:10:36;;;;;;;21.58;14.55;;;;;;;4.53;100.00;100276.31;5032582;28;20036;-83
2023/10/17 07:13:41;;;;;;;21.77;14.05;;;;;;;4.69;100.00;100271.81;5032595;28;20041;-82
2023/10/17 07:16:13;;;;;;;22.55;15.25;;;;;;;4.46;100.00;100239.41;5032376;28;20025;-83
2023/10/17 07:23:42;;;;;;;20.23;13.40;;;;;;;5.05;100.00;100280.78;5031940;28;20117;-82
2023/10/17 07:26:17;;;;;;;20.60;13.75;;;;;;;4.70;100.00;100217.59;5032192;28;20029;-83
2023/10/17 07:28:44;;;;;;;22.25;14.50;;;;;;;4.99;100.00;100273.97;5032010;28;20056;-83
2023/10/17 07:31:13;;;;;;;25.00;15.38;;;;;;;5.05;100.00;100280.78;5032095;28;20049;-83
2023/10/17 07:33:42;;;;;;;23.45;15.63;;;;;;;4.98;100.00;100266.25;4989988;28;20128;-82
2023/10/17 07:36:15;;;;;;;32.00;18.45;;;;;;;4.94;100.00;100265.44;4987710;28;20482;-82
2023/10/17 07:38:43;;;;;;;36.38;22.60;;;;;;;5.11;100.00;100285.03;4990145;28;20173;-83
2023/10/17 07:41:12;;;;;;;39.58;24.48;;;;;;;5.13;100.00;100278.94;4990152;28;20200;-83
2023/10/17 07:43:43;;;;;;;37.60;22.65;;;;;;;5.20;100.00;100261.66;4990188;28;20049;-83
2023/10/17 07:46:16;;;;;;;36.78;22.30;;;;;;;5.15;100.00;100246.22;4990454;28;20101;-83
2023/10/17 07:48:51;;;;;;;34.55;21.00;;;;;;;5.18;100.00;100228.09;4990258;28;20560;-83
2023/10/17 07:51:17;;;;;;;37.88;22.33;;;;;;;5.55;100.00;100270.56;4973762;28;20023;-83
2023/10/17 07:53:46;;;;;;;41.28;23.65;;;;;;;5.41;100.00;100230.31;4990135;28;20058;-83
2023/10/17 07:56:23;;;;;;;36.55;21.00;;;;;;;5.71;100.00;100264.28;4990151;28;20088;-83
2023/10/17 08:01:58;;;;;;;37.97;23.33;;;;;;;5.93;100.00;100269.94;4951351;29;20035;-83
2023/10/17 08:04:29;;;;;;;38.90;23.92;;;;;;;5.78;100.00;100210.75;4959433;28;20447;-83
2023/10/17 08:06:56;;;;;;;42.40;25.42;;;;;;;5.98;100.00;100221.59;4973767;28;20030;-83
2023/10/17 08:11:54;;;;;;;36.80;24.00;;;;;;;6.33;100.00;100284.75;4990013;28;20147;-83
2023/10/17 08:14:31;;;;;;;41.88;24.45;;;;;;;6.21;100.00;100242.72;4989720;28;20042;-83
2023/10/17 08:16:58;;;;;;;41.97;25.33;;;;;;;6.35;100.00;100252.78;4989996;28;20125;-83
2023/10/17 08:19:23;;;;;;;42.55;25.05;;;;;;;6.52;100.00;100267.13;4989653;28;20035;-83
2023/10/17 08:21:59;;;;;;;37.17;23.77;;;;;;;6.60;100.00;100275.59;4973531;28;20290;-83
2023/10/17 08:24:33;;;;;;;39.67;22.30;;;;;;;6.68;100.00;100282.31;4973408;28;20138;-83
2023/10/17 08:27:19;;;;;;;37.05;23.55;;;;;;;6.47;100.00;100238.75;4989646;28;20065;-83
2023/10/17 08:29:48;;;;;;;41.38;23.00;;;;;;;6.66;100.00;100267.72;4986467;28;20050;-83
2023/10/17 08:32:38;;;;;;;39.83;24.70;;;;;;;6.75;100.00;100270.09;4989819;28;20502;-83
2023/10/17 08:35:03;;;;;;;32.65;22.60;;;;;;;6.74;100.00;100269.25;4996439;28;20124;-83
2023/10/17 08:37:30;;;;;;;38.53;24.38;;;;;;;6.69;100.00;100252.94;5031231;28;20037;-83
2023/10/17 08:39:57;;;;;;;37.38;24.35;;;;;;;6.81;100.00;100264.78;5031655;28;20053;-83
2023/10/17 08:42:49;;;;;;;42.95;25.80;;;;;;;6.83;100.00;100268.19;5021113;28;20088;-83
2023/10/17 08:45:15;;;;;;;40.97;24.52;;;;;;;7.00;100.00;100288.56;5009129;28;20029;-83
2023/10/17 08:47:42;;;;;;;39.70;24.90;;;;;;;6.87;100.00;100254.31;5011564;28;20468;-83
2023/10/17 08:50:09;;;;;;;40.05;25.40;;;;;;;6.71;100.00;100227.03;4993898;28;20365;-83
2023/10/17 08:52:35;;;;;;;37.90;24.30;;;;;;;6.87;100.00;100243.94;5013505;28;20066;-83
2023/10/17 08:55:05;;;;;;;35.53;23.70;;;;;;;6.93;100.00;100243.81;5015562;28;20030;-83
2023/10/17 08:57:31;;;;;;;36.75;25.65;;;;;;;6.88;100.00;100245.66;5034406;28;20337;-83
2023/10/17 09:02:35;;;;;;;36.40;23.35;;;;;;;7.17;100.00;100281.25;5034254;28;20033;-83
2023/10/17 09:05:17;;;;;;;35.10;22.85;;;;;;;7.28;100.00;100282.75;5034180;28;20030;-83
2023/10/17 09:07:47;;;;;;;34.95;23.95;;;;;;;7.25;100.00;100257.78;5033925;28;20086;-83
2023/10/17 09:10:41;;;;;;;37.50;24.95;;;;;;;7.35;100.00;100269.63;5016061;28;20030;-83
2023/10/17 09:15:57;;;;;;;34.17;22.45;;;;;;;7.45;100.00;100260.72;5033976;28;20405;-83
2023/10/17 09:18:40;;;;;;;35.13;23.98;;;;;;;7.49;100.00;100256.31;5016155;28;20065;-83
2023/10/17 09:21:06;;;;;;;30.33;21.50;;;;;;;7.68;100.00;100277.47;5033979;28;20027;-83
2023/10/17 09:23:32;;;;;;;31.25;22.20;;;;;;;7.54;100.00;100248.44;5033686;28;20044;-84
2023/10/17 09:26:07;;;;;;;31.42;23.90;;;;;;;7.70;100.00;100239.38;5033708;28;20033;-83
2023/10/17 09:28:33;;;;;;;29.50;22.52;;;;;;;7.94;100.00;100262.09;5015595;28;20397;-83
2023/10/17 09:31:08;;;;;;;31.83;22.15;;;;;;;8.15;100.00;100275.41;5033882;28;20451;-83
2023/10/17 09:33:45;;;;;;;30.90;22.85;;;;;;;8.31;100.00;100274.09;5033995;28;20466;-83
2023/10/17 09:36:18;;;;;;;29.42;20.88;;;;;;;8.45;100.00;100276.34;5033853;28;20022;-83
2023/10/17 09:38:44;;;;;;;28.77;21.38;;;;;;;8.17;100.00;100204.38;5033428;28;20025;-83
2023/10/17 09:41:11;;;;;;;24.58;18.05;;;;;;;8.58;100.00;100250.88;5033746;28;20354;-83
2023/10/17 09:43:37;;;;;;;27.25;20.05;;;;;;;8.68;100.00;100252.31;5033361;28;20064;-84
2023/10/17 09:46:09;;;;;;;24.88;21.05;;;;;;;8.61;100.00;100232.63;5033613;28;20465;-83
2023/10/17 09:48:36;;;;;;;27.25;19.17;;;;;;;8.60;100.00;100233.53;5015376;28;20059;-83
2023/10/17 09:51:03;;;;;;;22.70;17.67;;;;;;;8.90;100.00;100260.34;5010922;28;20034;-84
2023/10/17 09:53:33;;;;;;;29.23;19.83;;;;;;;8.92;100.00;100253.31;4994521;28;20038;-83
2023/10/17 09:56:03;;;;;;;26.50;20.73;;;;;;;8.93;100.00;100255.91;5011206;28;20064;-83
2023/10/17 09:58:32;;;;;;;28.48;20.88;;;;;;;9.03;100.00;100276.41;5010619;28;20077;-83
2023/10/17 10:01:06;;;;;;;28.25;21.27;;;;;;;9.04;100.00;100257.31;5010863;28;20038;-83
2023/10/17 10:03:35;;;;;;;29.70;21.25;;;;;;;8.95;100.00;100229.88;5010785;28;20045;-83
2023/10/17 10:06:21;;;;;;;30.70;22.50;;;;;;;9.18;100.00;100261.16;5011018;28;20117;-83
2023/10/17 10:08:46;;;;;;;34.90;24.27;;;;;;;9.14;100.00;100254.41;5010718;28;20037;-83
2023/10/17 10:11:12;;;;;;;29.60;22.42;;;;;;;9.12;100.00;100258.78;5010828;28;20072;-83
2023/10/17 10:14:08;;;;;;;32.50;24.08;;;;;;;9.15;100.00;100258.69;5010685;28;20046;-83
2023/10/17 10:16:50;;;;;;;34.20;24.88;;;;;;;9.11;100.00;100238.88;4933149;29;20071;-83
2023/10/17 10:19:19;;;;;;;34.72;25.33;;;;;;;9.05;100.00;100228.66;4933119;29;20032;-83
2023/10/17 10:22:00;;;;;;;33.83;24.65;;;;;;;9.18;100.00;100240.38;4940080;29;20430;-83
2023/10/17 10:24:28;;;;;;;35.90;23.70;;;;;;;9.20;100.00;100230.81;4952220;29;20035;-83
2023/10/17 10:29:52;;;;;;;62.97;39.80;;;;;;;9.09;100.00;100193.91;4876148;29;20456;-82
2023/10/17 10:32:35;;;;;;;32.67;21.98;;;;;;;8.84;100.00;100136.66;4876501;29;20037;-82
2023/10/17 10:35:05;;;;;;;30.02;20.40;;;;;;;9.23;100.00;100203.88;4876393;29;20040;-82
2023/10/17 10:37:32;;;;;;;22.03;16.70;;;;;;;9.17;100.00;100176.31;4876567;29;20371;-82
2023/10/17 10:42:47;;;;;;;23.55;17.35;;;;;;;9.55;100.00;100212.34;4876228;29;20122;-83
2023/10/17 10:45:26;;;;;;;19.92;16.33;;;;;;;9.42;100.00;100194.56;4876092;29;20131;-83
2023/10/17 10:47:58;;;;;;;18.67;14.55;;;;;;;9.52;100.00;100197.69;4876154;29;20041;-83
2023/10/17 10:50:26;;;;;;;16.95;14.77;;;;;;;9.53;100.00;100207.22;4876228;29;20509;-83
2023/10/17 10:52:51;;;;;;;21.85;16.77;;;;;;;9.39;100.00;100176.44;4872505;29;20036;-83
2023/10/17 10:55:17;;;;;;;24.73;15.82;;;;;;;9.58;100.00;100186.25;4913529;29;20043;-83
2023/10/17 10:57:43;;;;;;;19.63;15.98;;;;;;;9.65;100.00;100192.91;4913495;29;20152;-83
2023/10/17 11:00:09;;;;;;;20.63;15.77;;;;;;;9.71;100.00;100208.34;4913419;29;20044;-83
2023/10/17 11:02:36;;;;;;;21.88;15.95;;;;;;;9.72;100.00;100197.88;4913330;29;20036;-82
2023/10/17 11:05:04;;;;;;;20.40;15.07;;;;;;;9.81;100.00;100194.09;4913660;29;20071;-83
2023/10/17 11:07:33;;;;;;;19.70;14.85;;;;;;;9.76;100.00;100183.00;4913060;29;20040;-83
2023/10/17 11:10:06;;;;;;;15.80;12.85;;;;;;;9.78;100.00;100185.56;4913444;29;20521;-82
2023/10/17 11:12:35;;;;;;;17.95;12.98;;;;;;;9.77;100.00;100194.25;4913067;29;20044;-82
2023/10/17 11:15:09;;;;;;;15.13;11.45;;;;;;;9.84;100.00;100196.59;4896961;29;20040;-83
2023/10/17 11:17:35;;;;;;;14.77;11.73;;;;;;;9.72;100.00;100192.66;4913150;29;20043;-82
2023/10/17 11:20:00;;;;;;;16.15;11.77;;;;;;;9.40;100.00;100159.97;4913288;29;20107;-82
2023/10/17 11:22:28;;;;;;;14.98;11.45;;;;;;;9.36;100.00;100166.19;4935962;28;20506;-83
2023/10/17 11:24:55;;;;;;;13.45;11.80;;;;;;;9.49;100.00;100180.47;4970388;28;20027;-83
2023/10/17 11:27:20;;;;;;;15.98;12.90;;;;;;;9.23;100.00;100133.69;5016950;28;20045;-83
2023/10/17 11:29:47;;;;;;;15.00;11.70;;;;;;;9.16;100.00;100127.84;5019944;28;20116;-82
2023/10/17 11:32:14;;;;;;;16.55;11.98;;;;;;;9.24;100.00;100146.63;5018411;28;20109;-82
2023/10/17 11:34:42;;;;;;;16.52;13.15;;;;;;;9.13;100.00;100135.72;5025180;28;20037;-82
2023/10/17 11:37:11;;;;;;;17.35;11.88;;;;;;;8.73;100.00;100092.88;5030903;28;20041;-82
2023/10/17 11:39:42;;;;;;;16.15;12.52;;;;;;;9.10;100.00;100171.34;5001353;28;20437;-82
2023/10/17 11:42:08;;;;;;;;;;;;;;;9.09;100.00;100160.13;5012307;28;20022;-82
2023/10/17 11:44:42;;;;;;;20.95;12.13;;;;;;;9.03;100.00;100149.09;5011338;28;19963;-82
2023/10/17 11:47:22;;;;;;;12.88;9.63;;;;;;;8.81;100.00;100102.19;5000868;28;20034;-82
2023/10/17 11:49:49;;;;;;;11.98;10.07;;;;;;;8.68;100.00;100089.59;5020196;28;20033;-83
2023/10/17 11:52:15;;;;;;;12.20;9.88;;;;;;;8.62;100.00;100081.97;5021906;28;20026;-83
2023/10/17 11:55:04;;;;;;;11.80;10.38;;;;;;;8.90;100.00;100125.25;5028095;28;20025;-82
2023/10/17 11:57:33;;;;;;;12.82;9.80;;;;;;;8.99;99.75;100133.59;5020109;28;20029;-83
2023/10/17 12:00:06;;;;;;;10.18;8.95;;;;;;;9.05;98.49;100140.31;5021758;28;20013;-83
2023/10/17 12:02:32;;;;;;;15.95;10.02;;;;;;;9.13;99.77;100140.06;5012044;28;20037;-83
2023/10/17 12:05:00;;;;;;;11.50;9.43;;;;;;;9.11;100.00;100095.13;5020473;28;20030;-82
2023/10/17 12:07:25;;;;;;;10.32;8.98;;;;;;;9.19;100.00;100080.97;5003980;28;20025;-82
2023/10/17 12:09:53;;;;;;;11.73;8.57;;;;;;;9.59;100.00;100115.97;5031564;28;20105;-82
2023/10/17 12:12:19;;;;;;;12.30;9.27;;;;;;;9.78;99.98;100110.97;5031454;28;20461;-82
2023/10/17 12:14:44;;;;;;;9.15;8.18;;;;;;;10.00;98.04;100111.03;5031472;28;20116;-82
2023/10/17 12:17:13;;;;;;;9.32;7.90;;;;;;;10.07;94.97;100111.66;5031949;28;20038;-82
2023/10/17 12:19:40;;;;;;;8.93;8.02;;;;;;;10.02;92.71;100090.16;5031341;28;20117;-82
2023/10/17 12:22:06;;;;;;;9.18;7.47;;;;;;;10.14;89.20;100110.53;5013770;28;20029;-82
2023/10/17 12:24:37;;;;;;;9.35;8.15;;;;;;;10.00;87.67;100098.03;5013475;28;20075;-82
2023/10/17 12:27:06;;;;;;;12.68;9.48;;;;;;;10.09;89.28;100107.25;5032376;28;20121;-82
2023/10/17 12:29:32;;;;;;;7.75;6.22;;;;;;;10.20;89.18;100107.72;5035171;28;20088;-82
2023/10/17 12:31:59;;;;;;;8.95;7.35;;;;;;;10.36;91.02;100105.38;5035393;28;20069;-82
2023/10/17 12:34:25;;;;;;;7.85;6.60;;;;;;;10.49;93.12;100110.06;5017369;28;20164;-82
2023/10/17 12:36:51;;;;;;;8.32;6.63;;;;;;;10.63;92.46;100104.31;5035026;28;20126;-82
2023/10/17 12:39:19;;;;;;;8.93;6.85;;;;;;;10.63;92.77;100085.25;5035133;28;20026;-82
2023/10/17 12:41:48;;;;;;;8.55;6.97;;;;;;;10.73;92.77;100091.75;5035206;28;20387;-82
2023/10/17 12:44:18;;;;;;;6.35;5.65;;;;;;;10.88;90.81;100108.56;5035283;28;20029;-82
2023/10/17 12:46:44;;;;;;;8.18;6.20;;;;;;;10.83;90.84;100090.50;5035132;28;20103;-82
2023/10/17 12:49:10;;;;;;;6.82;6.13;;;;;;;10.59;90.20;100037.63;5017323;28;20171;-82
2023/10/17 12:51:37;;;;;;;8.52;5.38;;;;;;;10.73;91.20;100056.13;5034743;28;20060;-82
2023/10/17 12:54:03;;;;;;;6.00;5.40;;;;;;;10.88;90.36;100074.69;5035388;28;20021;-82
2023/10/17 12:56:29;;;;;;;7.53;5.45;;;;;;;10.87;89.82;100072.97;5035160;28;20021;-82
2023/10/17 12:58:54;;;;;;;5.93;5.30;;;;;;;10.89;89.41;100078.97;5034832;28;20029;-82
2023/10/17 13:01:24;;;;;;;6.70;5.22;;;;;;;10.77;86.87;100071.66;5034923;28;20481;-82
2023/10/17 13:03:53;;;;;;;5.53;4.50;;;;;;;10.71;86.63;100057.97;5034609;28;20079;-82
2023/10/17 13:06:20;;;;;;;4.63;4.22;;;;;;;10.81;86.89;100074.06;5017024;28;20570;-82
2023/10/17 13:08:46;;;;;;;7.30;5.25;;;;;;;10.94;86.92;100098.72;5034894;28;20022;-82
2023/10/17 13:11:11;;;;;;;5.07;4.57;;;;;;;10.78;86.72;100071.56;5016786;28;20036;-82
2023/10/17 13:13:39;;;;;;;5.80;5.25;;;;;;;10.77;85.08;100077.72;5034612;28;20080;-82
2023/10/17 13:16:05;;;;;;;9.57;5.90;;;;;;;10.82;84.61;100095.75;5034697;28;20029;-82
2023/10/17 13:18:33;;;;;;;7.05;5.20;;;;;;;10.71;83.75;100084.03;5016645;28;20037;-82
2023/10/17 13:21:06;;;;;;;6.72;5.05;;;;;;;10.64;85.59;100060.88;5034316;28;20029;-82
2023/10/17 13:23:32;;;;;;;5.80;4.80;;;;;;;10.72;87.25;100069.22;5034713;28;20025;-82
2023/10/17 13:25:58;;;;;;;5.63;5.10;;;;;;;10.59;88.77;100048.03;5016548;28;20026;-82
2023/10/17 13:28:24;;;;;;;5.55;5.05;;;;;;;10.73;89.46;100065.72;5034400;28;20041;-83
2023/10/17 13:30:50;;;;;;;6.57;5.18;;;;;;;10.75;88.01;100082.16;5034218;28;20029;-82
2023/10/17 13:33:15;;;;;;;8.70;6.25;;;;;;;10.67;87.92;100064.22;5034354;28;20388;-82
2023/10/17 13:35:41;;;;;;;6.80;5.63;;;;;;;10.61;88.09;100055.78;5034354;28;20029;-82